sensor_id;sensor_type;location;lat;lon;timestamp;pressure;altitude;pressure_sealevel;temperature;humidity
9077;BME280;4574;51.072;17.174;2023-08-17T00:00:27;100408.72;;;22.63;100.00
9077;BME280;4574;51.072;17.174;2023-08-17T00:02:55;100409.56;;;22.64;100.00
9077;BME280;4574;51.072;17.174;2023-08-17T00:05:24;100404.25;;;22.51;100.00
9077;BME280;4574;51.072;17.174;2023-08-17T00:07:53;100409.22;;;22.54;100.00
9077;BME280;4574;51.072;17.174;2023-08-17T00:10:22;100411.66;;;22.62;100.00
9077;BME280;4574;51.072;17.174;2023-08-17T00:12:50;100411.84;;;22.60;100.00
9077;BME280;4574;51.072;17.174;2023-08-17T00:15:20;100427.84;;;22.62;100.00
9077;BME280;4574;51.072;17.174;2023-08-17T00:17:49;100439.44;;;22.62;100.00
9077;BME280;4574;51.072;17.174;2023-08-17T00:20:18;100441.06;;;22.70;100.00
9077;BME280;4574;51.072;17.174;2023-08-17T00:22:46;100430.44;;;22.75;100.00
9077;BME280;4574;51.072;17.174;2023-08-17T00:25:15;100437.47;;;22.76;100.00
9077;BME280;4574;51.072;17.174;2023-08-17T00:27:43;100442.56;;;22.66;100.00
9077;BME280;4574;51.072;17.174;2023-08-17T00:30:14;100457.44;;;22.75;100.00
9077;BME280;4574;51.072;17.174;2023-08-17T00:32:44;100485.66;;;22.79;100.00
9077;BME280;4574;51.072;17.174;2023-08-17T00:35:13;100555.47;;;22.69;100.00
9077;BME280;4574;51.072;17.174;2023-08-17T00:37:41;100560.34;;;22.47;100.00
9077;BME280;4574;51.072;17.174;2023-08-17T00:40:11;100552.94;;;22.43;100.00
9077;BME280;4574;51.072;17.174;2023-08-17T00:42:40;100579.97;;;22.17;100.00
9077;BME280;4574;51.072;17.174;2023-08-17T00:45:09;100584.72;;;22.21;100.00
9077;BME280;4574;51.072;17.174;2023-08-17T00:47:38;100585.75;;;22.27;100.00
9077;BME280;4574;51.072;17.174;2023-08-17T00:50:08;100586.59;;;22.21;100.00
9077;BME280;4574;51.072;17.174;2023-08-17T00:52:38;100589.91;;;22.23;100.00
9077;BME280;4574;51.072;17.174;2023-08-17T00:55:09;100585.97;;;22.19;100.00
9077;BME280;4574;51.072;17.174;2023-08-17T00:57:40;100573.31;;;22.26;100.00
9077;BME280;4574;51.072;17.174;2023-08-17T01:00:11;100568.72;;;22.33;100.00
9077;BME280;4574;51.072;17.174;2023-08-17T01:02:44;100563.94;;;22.35;100.00
9077;BME280;4574;51.072;17.174;2023-08-17T01:05:14;100571.63;;;22.38;100.00
9077;BME280;4574;51.072;17.174;2023-08-17T01:07:43;100589.66;;;22.44;100.00
9077;BME280;4574;51.072;17.174;2023-08-17T01:10:11;100579.50;;;22.33;100.00
9077;BME280;4574;51.072;17.174;2023-08-17T01:12:46;100549.91;;;22.07;100.00
9077;BME280;4574;51.072;17.174;2023-08-17T01:15:19;100493.19;;;21.57;100.00
9077;BME280;4574;51.072;17.174;2023-08-17T01:17:54;100455.75;;;21.10;100.00
9077;BME280;4574;51.072;17.174;2023-08-17T01:20:26;100481.84;;;20.83;100.00
9077;BME280;4574;51.072;17.174;2023-08-17T01:22:56;100474.16;;;20.80;100.00
9077;BME280;4574;51.072;17.174;2023-08-17T01:25:28;100464.84;;;20.76;100.00
9077;BME280;4574;51.072;17.174;2023-08-17T01:27:57;100463.78;;;20.71;100.00
9077;BME280;4574;51.072;17.174;2023-08-17T01:30:26;100453.22;;;20.63;100.00
9077;BME280;4574;51.072;17.174;2023-08-17T01:33:02;100444.34;;;20.62;100.00
9077;BME280;4574;51.072;17.174;2023-08-17T01:35:38;100443.31;;;20.76;100.00
9077;BME280;4574;51.072;17.174;2023-08-17T01:38:12;100442.50;;;20.82;100.00
9077;BME280;4574;51.072;17.174;2023-08-17T01:40:45;100441.88;;;20.80;100.00
9077;BME280;4574;51.072;17.174;2023-08-17T01:43:14;100449.56;;;20.96;100.00
9077;BME280;4574;51.072;17.174;2023-08-17T01:45:44;100451.41;;;21.09;100.00
9077;BME280;4574;51.072;17.174;2023-08-17T01:48:13;100441.88;;;21.19;100.00
9077;BME280;4574;51.072;17.174;2023-08-17T01:50:41;100445.38;;;21.26;100.00
9077;BME280;4574;51.072;17.174;2023-08-17T01:53:10;100444.34;;;21.34;100.00
9077;BME280;4574;51.072;17.174;2023-08-17T01:55:38;100440.81;;;21.40;100.00
9077;BME280;4574;51.072;17.174;2023-08-17T01:58:08;100442.03;;;21.44;100.00
9077;BME280;4574;51.072;17.174;2023-08-17T02:00:37;100457.56;;;21.48;100.00
9077;BME280;4574;51.072;17.174;2023-08-17T02:03:05;100452.78;;;21.50;100.00
9077;BME280;4574;51.072;17.174;2023-08-17T02:05:34;100450.09;;;21.50;100.00
9077;BME280;4574;51.072;17.174;2023-08-17T02:08:03;100452.78;;;21.50;100.00
9077;BME280;4574;51.072;17.174;2023-08-17T02:10:32;100437.69;;;21.43;100.00
9077;BME280;4574;51.072;17.174;2023-08-17T02:13:00;100436.22;;;21.40;100.00
9077;BME280;4574;51.072;17.174;2023-08-17T02:15:46;100437.91;;;21.35;100.00
9077;BME280;4574;51.072;17.174;2023-08-17T02:18:14;100433.34;;;21.35;100.00
9077;BME280;4574;51.072;17.174;2023-08-17T02:20:43;100421.97;;;21.20;100.00
9077;BME280;4574;51.072;17.174;2023-08-17T02:23:11;100429.41;;;21.25;100.00
9077;BME280;4574;51.072;17.174;2023-08-17T02:25:40;100419.06;;;21.28;100.00
9077;BME280;4574;51.072;17.174;2023-08-17T02:28:08;100422.38;;;21.30;100.00
9077;BME280;4574;51.072;17.174;2023-08-17T02:30:37;100423.84;;;21.33;100.00
9077;BME280;4574;51.072;17.174;2023-08-17T02:33:07;100426.72;;;21.31;100.00
9077;BME280;4574;51.072;17.174;2023-08-17T02:35:35;100409.75;;;21.18;100.00
9077;BME280;4574;51.072;17.174;2023-08-17T02:38:04;100413.91;;;21.20;100.00
9077;BME280;4574;51.072;17.174;2023-08-17T02:40:32;100414.53;;;21.22;100.00
9077;BME280;4574;51.072;17.174;2023-08-17T02:43:01;100413.06;;;21.26;100.00
9077;BME280;4574;51.072;17.174;2023-08-17T02:45:29;100419.06;;;21.28;100.00
9077;BME280;4574;51.072;17.174;2023-08-17T02:47:58;100411.41;;;21.25;100.00
9077;BME280;4574;51.072;17.174;2023-08-17T02:50:28;100408.91;;;21.24;100.00
9077;BME280;4574;51.072;17.174;2023-08-17T02:52:56;100403.13;;;21.20;100.00
9077;BME280;4574;51.072;17.174;2023-08-17T02:55:25;100410.97;;;21.22;100.00
9077;BME280;4574;51.072;17.174;2023-08-17T02:57:53;100416.59;;;21.20;100.00
9077;BME280;4574;51.072;17.174;2023-08-17T03:00:22;100413.06;;;21.20;100.00
9077;BME280;4574;51.072;17.174;2023-08-17T03:02:50;100405.63;;;21.15;100.00
9077;BME280;4574;51.072;17.174;2023-08-17T03:05:20;100417.25;;;20.90;100.00
9077;BME280;4574;51.072;17.174;2023-08-17T03:07:50;100419.75;;;20.91;100.00
9077;BME280;4574;51.072;17.174;2023-08-17T03:10:19;100403.59;;;20.91;100.00
9077;BME280;4574;51.072;17.174;2023-08-17T03:12:47;100404.41;;;20.98;100.00
9077;BME280;4574;51.072;17.174;2023-08-17T03:15:16;100405.03;;;21.00;100.00
9077;BME280;4574;51.072;17.174;2023-08-17T03:17:45;100398.19;;;21.04;100.00
9077;BME280;4574;51.072;17.174;2023-08-17T03:20:13;100408.13;;;21.04;100.00
9077;BME280;4574;51.072;17.174;2023-08-17T03:22:42;100414.34;;;21.04;100.00
9077;BME280;4574;51.072;17.174;2023-08-17T03:25:12;100424.88;;;21.06;100.00
9077;BME280;4574;51.072;17.174;2023-08-17T03:27:40;100430.91;;;21.01;100.00
9077;BME280;4574;51.072;17.174;2023-08-17T03:30:09;100437.72;;;21.04;100.00
9077;BME280;4574;51.072;17.174;2023-08-17T03:32:37;100440.41;;;21.04;100.00
9077;BME280;4574;51.072;17.174;2023-08-17T03:35:07;100437.94;;;21.02;100.00
9077;BME280;4574;51.072;17.174;2023-08-17T03:37:36;100443.34;;;21.02;100.00
9077;BME280;4574;51.072;17.174;2023-08-17T03:40:06;100449.53;;;21.03;100.00
9077;BME280;4574;51.072;17.174;2023-08-17T03:42:37;100450.38;;;21.03;100.00
9077;BME280;4574;51.072;17.174;2023-08-17T03:45:06;100447.69;;;21.03;100.00
9077;BME280;4574;51.072;17.174;2023-08-17T03:47:35;100463.44;;;21.06;100.00
9077;BME280;4574;51.072;17.174;2023-08-17T03:50:04;100463.84;;;21.03;100.00
9077;BME280;4574;51.072;17.174;2023-08-17T03:52:33;100475.44;;;20.97;100.00
9077;BME280;4574;51.072;17.174;2023-08-17T03:55:01;100469.22;;;20.90;100.00
9077;BME280;4574;51.072;17.174;2023-08-17T03:57:32;100476.88;;;20.87;100.00
9077;BME280;4574;51.072;17.174;2023-08-17T04:00:07;100478.53;;;20.81;100.00
9077;BME280;4574;51.072;17.174;2023-08-17T04:02:37;100470.25;;;20.83;100.00
9077;BME280;4574;51.072;17.174;2023-08-17T04:05:06;100467.13;;;20.79;100.00
9077;BME280;4574;51.072;17.174;2023-08-17T04:07:35;100466.09;;;20.80;100.00
9077;BME280;4574;51.072;17.174;2023-08-17T04:10:05;100459.03;;;20.79;100.00
9077;BME280;4574;51.072;17.174;2023-08-17T04:12:34;100461.13;;;20.77;100.00
9077;BME280;4574;51.072;17.174;2023-08-17T04:15:03;100468.59;;;20.82;100.00
9077;BME280;4574;51.072;17.174;2023-08-17T04:17:33;100469.22;;;20.84;100.00
9077;BME280;4574;51.072;17.174;2023-08-17T04:20:01;100471.72;;;20.85;100.00
9077;BME280;4574;51.072;17.174;2023-08-17T04:22:31;100469.22;;;20.84;100.00
9077;BME280;4574;51.072;17.174;2023-08-17T04:24:59;100478.94;;;20.85;100.00
9077;BME280;4574;51.072;17.174;2023-08-17T04:27:28;100489.72;;;20.85;100.00
9077;BME280;4574;51.072;17.174;2023-08-17T04:29:57;100496.75;;;20.86;100.00
9077;BME280;4574;51.072;17.174;2023-08-17T04:32:25;100510.00;;;20.87;100.00
9077;BME280;4574;51.072;17.174;2023-08-17T04:34:55;100533.81;;;20.84;100.00
9077;BME280;4574;51.072;17.174;2023-08-17T04:37:24;100528.63;;;20.89;100.00
9077;BME280;4574;51.072;17.174;2023-08-17T04:39:53;100541.91;;;20.90;100.00
9077;BME280;4574;51.072;17.174;2023-08-17T04:42:21;100539.00;;;20.92;100.00
9077;BME280;4574;51.072;17.174;2023-08-17T04:44:51;100539.22;;;20.90;100.00
9077;BME280;4574;51.072;17.174;2023-08-17T04:47:20;100546.88;;;20.93;100.00
9077;BME280;4574;51.072;17.174;2023-08-17T04:49:48;100539.84;;;20.92;100.00
9077;BME280;4574;51.072;17.174;2023-08-17T04:52:19;100539.00;;;20.92;100.00
9077;BME280;4574;51.072;17.174;2023-08-17T04:54:47;100544.81;;;20.95;100.00
9077;BME280;4574;51.072;17.174;2023-08-17T04:57:16;100560.72;;;20.97;100.00
9077;BME280;4574;51.072;17.174;2023-08-17T04:59:44;100567.59;;;20.99;100.00
9077;BME280;4574;51.072;17.174;2023-08-17T05:02:13;100563.63;;;21.02;100.00
9077;BME280;4574;51.072;17.174;2023-08-17T05:04:41;100538.59;;;21.01;100.00
9077;BME280;4574;51.072;17.174;2023-08-17T05:07:10;100538.19;;;21.04;100.00
9077;BME280;4574;51.072;17.174;2023-08-17T05:09:39;100540.66;;;21.06;100.00
9077;BME280;4574;51.072;17.174;2023-08-17T05:12:08;100542.53;;;21.05;100.00
9077;BME280;4574;51.072;17.174;2023-08-17T05:14:37;100541.50;;;21.06;100.00
9077;BME280;4574;51.072;17.174;2023-08-17T05:17:05;100551.25;;;21.07;100.00
9077;BME280;4574;51.072;17.174;2023-08-17T05:19:33;100546.47;;;21.09;100.00
9077;BME280;4574;51.072;17.174;2023-08-17T05:22:02;100556.84;;;21.12;100.00
9077;BME280;4574;51.072;17.174;2023-08-17T05:24:30;100551.88;;;21.09;100.00
9077;BME280;4574;51.072;17.174;2023-08-17T05:27:00;100545.03;;;21.13;100.00
9077;BME280;4574;51.072;17.174;2023-08-17T05:29:29;100552.69;;;21.16;100.00
9077;BME280;4574;51.072;17.174;2023-08-17T05:31:59;100548.97;;;21.17;100.00
9077;BME280;4574;51.072;17.174;2023-08-17T05:34:27;100544.19;;;21.19;100.00
9077;BME280;4574;51.072;17.174;2023-08-17T05:36:55;100537.97;;;21.25;100.00
9077;BME280;4574;51.072;17.174;2023-08-17T05:39:24;100544.19;;;21.32;100.00
9077;BME280;4574;51.072;17.174;2023-08-17T05:41:52;100531.97;;;21.36;100.00
9077;BME280;4574;51.072;17.174;2023-08-17T05:44:22;100525.97;;;21.41;100.00
9077;BME280;4574;51.072;17.174;2023-08-17T05:46:51;100535.69;;;21.48;100.00
9077;BME280;4574;51.072;17.174;2023-08-17T05:49:19;100535.28;;;21.58;100.00
9077;BME280;4574;51.072;17.174;2023-08-17T05:51:48;100527.81;;;21.66;100.00
9077;BME280;4574;51.072;17.174;2023-08-17T05:54:17;100525.31;;;21.71;100.00
9077;BME280;4574;51.072;17.174;2023-08-17T05:56:45;100526.97;;;21.78;100.00
9077;BME280;4574;51.072;17.174;2023-08-17T05:59:14;100519.09;;;21.83;100.00
9077;BME280;4574;51.072;17.174;2023-08-17T06:01:44;100521.13;;;21.88;100.00
9077;BME280;4574;51.072;17.174;2023-08-17T06:04:12;100526.94;;;21.91;100.00
9077;BME280;4574;51.072;17.174;2023-08-17T06:06:41;100519.88;;;21.90;100.00
9077;BME280;4574;51.072;17.174;2023-08-17T06:09:10;100528.34;;;22.00;100.00
9077;BME280;4574;51.072;17.174;2023-08-17T06:11:38;100529.78;;;22.03;100.00
9077;BME280;4574;51.072;17.174;2023-08-17T06:14:07;100523.34;;;22.04;100.00
9077;BME280;4574;51.072;17.174;2023-08-17T06:16:35;100526.25;;;22.09;100.00
9077;BME280;4574;51.072;17.174;2023-08-17T06:19:05;100524.81;;;22.13;100.00
9077;BME280;4574;51.072;17.174;2023-08-17T06:21:34;100532.47;;;22.16;100.00
9077;BME280;4574;51.072;17.174;2023-08-17T06:24:02;100540.31;;;22.17;100.00
9077;BME280;4574;51.072;17.174;2023-08-17T06:26:31;100540.13;;;22.19;100.00
9077;BME280;4574;51.072;17.174;2023-08-17T06:28:59;100538.06;;;22.21;100.00
9077;BME280;4574;51.072;17.174;2023-08-17T06:31:30;100537.63;;;22.24;100.00
9077;BME280;4574;51.072;17.174;2023-08-17T06:33:58;100534.94;;;22.24;100.00
9077;BME280;4574;51.072;17.174;2023-08-17T06:36:31;100539.66;;;22.28;100.00
9077;BME280;4574;51.072;17.174;2023-08-17T06:39:00;100537.16;;;22.33;100.00
9077;BME280;4574;51.072;17.174;2023-08-17T06:41:29;100541.34;;;22.36;100.00
9077;BME280;4574;51.072;17.174;2023-08-17T06:43:58;100541.97;;;22.25;100.00
9077;BME280;4574;51.072;17.174;2023-08-17T06:46:27;100552.94;;;22.30;100.00
9077;BME280;4574;51.072;17.174;2023-08-17T06:48:55;100554.19;;;22.34;100.00
9077;BME280;4574;51.072;17.174;2023-08-17T06:51:24;100547.13;;;22.33;100.00
9077;BME280;4574;51.072;17.174;2023-08-17T06:53:54;100548.38;;;22.37;100.00
9077;BME280;4574;51.072;17.174;2023-08-17T06:56:22;100535.53;;;22.26;100.00
9077;BME280;4574;51.072;17.174;2023-08-17T06:58:51;100540.28;;;22.37;100.00
9077;BME280;4574;51.072;17.174;2023-08-17T07:01:19;100545.88;;;22.42;100.00
9077;BME280;4574;51.072;17.174;2023-08-17T07:03:48;100543.56;;;22.45;100.00
9077;BME280;4574;51.072;17.174;2023-08-17T07:06:16;100536.72;;;22.43;100.00
9077;BME280;4574;51.072;17.174;2023-08-17T07:08:45;100547.47;;;22.56;100.00
9077;BME280;4574;51.072;17.174;2023-08-17T07:11:16;100548.72;;;22.53;100.00
9077;BME280;4574;51.072;17.174;2023-08-17T07:13:47;100563.16;;;22.65;100.00
9077;BME280;4574;51.072;17.174;2023-08-17T07:16:18;100554.47;;;22.63;100.00
9077;BME280;4574;51.072;17.174;2023-08-17T07:18:47;100554.00;;;22.73;100.00
9077;BME280;4574;51.072;17.174;2023-08-17T07:21:15;100552.72;;;22.75;100.00
9077;BME280;4574;51.072;17.174;2023-08-17T07:23:45;100557.94;;;22.77;100.00
9077;BME280;4574;51.072;17.174;2023-08-17T07:26:14;100562.28;;;22.78;100.00
9077;BME280;4574;51.072;17.174;2023-08-17T07:28:44;100561.84;;;22.81;100.00
9077;BME280;4574;51.072;17.174;2023-08-17T07:31:12;100560.38;;;22.85;100.00
9077;BME280;4574;51.072;17.174;2023-08-17T07:33:41;100564.28;;;22.89;100.00
9077;BME280;4574;51.072;17.174;2023-08-17T07:36:12;100572.56;;;22.94;100.00
9077;BME280;4574;51.072;17.174;2023-08-17T07:38:41;100570.03;;;22.99;100.00
9077;BME280;4574;51.072;17.174;2023-08-17T07:41:10;100566.47;;;23.05;100.00
9077;BME280;4574;51.072;17.174;2023-08-17T07:43:38;100568.31;;;23.11;100.00
9077;BME280;4574;51.072;17.174;2023-08-17T07:46:08;100572.84;;;23.16;100.00
9077;BME280;4574;51.072;17.174;2023-08-17T07:48:37;100561.16;;;23.22;100.00
9077;BME280;4574;51.072;17.174;2023-08-17T07:51:06;100565.53;;;23.23;100.00
9077;BME280;4574;51.072;17.174;2023-08-17T07:53:34;100556.59;;;23.23;100.00
9077;BME280;4574;51.072;17.174;2023-08-17T07:56:03;100554.72;;;23.23;100.00
9077;BME280;4574;51.072;17.174;2023-08-17T07:58:31;100531.56;;;23.10;100.00
9077;BME280;4574;51.072;17.174;2023-08-17T08:01:00;100544.97;;;23.22;100.00
9077;BME280;4574;51.072;17.174;2023-08-17T08:03:32;100548.44;;;23.29;100.00
9077;BME280;4574;51.072;17.174;2023-08-17T08:06:01;100542.75;;;23.37;100.00
9077;BME280;4574;51.072;17.174;2023-08-17T08:08:29;100551.03;;;23.42;100.00
9077;BME280;4574;51.072;17.174;2023-08-17T08:10:58;100555.34;;;23.50;100.00
9077;BME280;4574;51.072;17.174;2023-08-17T08:13:27;100541.09;;;23.36;100.00
9077;BME280;4574;51.072;17.174;2023-08-17T08:15:55;100543.69;;;23.49;100.00
9077;BME280;4574;51.072;17.174;2023-08-17T08:18:24;100539.63;;;23.58;100.00
9077;BME280;4574;51.072;17.174;2023-08-17T08:20:53;100554.75;;;23.66;100.00
9077;BME280;4574;51.072;17.174;2023-08-17T08:23:22;100549.44;;;23.77;100.00
9077;BME280;4574;51.072;17.174;2023-08-17T08:25:50;100545.16;;;23.94;100.00
9077;BME280;4574;51.072;17.174;2023-08-17T08:28:19;100547.56;;;24.02;100.00
9077;BME280;4574;51.072;17.174;2023-08-17T08:30:47;100552.22;;;23.95;100.00
9077;BME280;4574;51.072;17.174;2023-08-17T08:33:16;100550.03;;;24.04;100.00
9077;BME280;4574;51.072;17.174;2023-08-17T08:35:45;100555.06;;;24.18;100.00
9077;BME280;4574;51.072;17.174;2023-08-17T08:38:15;100565.28;;;24.16;100.00
9077;BME280;4574;51.072;17.174;2023-08-17T08:40:47;100559.03;;;24.16;100.00
9077;BME280;4574;51.072;17.174;2023-08-17T08:43:16;100566.03;;;24.23;100.00
9077;BME280;4574;51.072;17.174;2023-08-17T08:45:45;100561.53;;;24.35;100.00
9077;BME280;4574;51.072;17.174;2023-08-17T08:48:15;100561.22;;;24.43;100.00
9077;BME280;4574;51.072;17.174;2023-08-17T08:50:44;100566.97;;;24.47;100.00
9077;BME280;4574;51.072;17.174;2023-08-17T08:53:15;100568.22;;;24.51;100.00
9077;BME280;4574;51.072;17.174;2023-08-17T08:55:50;100566.63;;;24.61;100.00
9077;BME280;4574;51.072;17.174;2023-08-17T08:58:21;100561.34;;;24.66;100.00
9077;BME280;4574;51.072;17.174;2023-08-17T09:00:50;100545.09;;;24.66;100.00
9077;BME280;4574;51.072;17.174;2023-08-17T09:03:19;100564.56;;;24.74;100.00
9077;BME280;4574;51.072;17.174;2023-08-17T09:05:49;100561.03;;;24.74;100.00
9077;BME280;4574;51.072;17.174;2023-08-17T09:08:21;100564.56;;;24.74;100.00
9077;BME280;4574;51.072;17.174;2023-08-17T09:10:50;100549.97;;;24.75;100.00
9077;BME280;4574;51.072;17.174;2023-08-17T09:13:18;100553.03;;;24.79;100.00
9077;BME280;4574;51.072;17.174;2023-08-17T09:15:47;100551.97;;;24.80;100.00
9077;BME280;4574;51.072;17.174;2023-08-17T09:18:16;100550.72;;;24.94;100.00
9077;BME280;4574;51.072;17.174;2023-08-17T09:20:46;100547.81;;;25.07;100.00
9077;BME280;4574;51.072;17.174;2023-08-17T09:23:16;100547.16;;;25.23;100.00
9077;BME280;4574;51.072;17.174;2023-08-17T09:25:49;100552.25;;;25.19;100.00
9077;BME280;4574;51.072;17.174;2023-08-17T09:28:19;100553.56;;;25.40;100.00
9077;BME280;4574;51.072;17.174;2023-08-17T09:30:54;100546.50;;;25.50;100.00
9077;BME280;4574;51.072;17.174;2023-08-17T09:33:24;100548.78;;;25.65;100.00
9077;BME280;4574;51.072;17.174;2023-08-17T09:35:54;100546.16;;;25.70;100.00
9077;BME280;4574;51.072;17.174;2023-08-17T09:38:26;100544.97;;;25.77;100.00
9077;BME280;4574;51.072;17.174;2023-08-17T09:40:57;100540.38;;;25.89;100.00
9077;BME280;4574;51.072;17.174;2023-08-17T09:43:26;100538.59;;;26.06;100.00
9077;BME280;4574;51.072;17.174;2023-08-17T09:45:58;100529.50;;;26.12;100.00
9077;BME280;4574;51.072;17.174;2023-08-17T09:48:28;100520.97;;;26.31;100.00
9077;BME280;4574;51.072;17.174;2023-08-17T09:50:59;100539.00;;;26.49;100.00
9077;BME280;4574;51.072;17.174;2023-08-17T09:53:28;100537.75;;;26.68;100.00
9077;BME280;4574;51.072;17.174;2023-08-17T09:55:59;100535.06;;;26.84;100.00
9077;BME280;4574;51.072;17.174;2023-08-17T09:58:29;100534.50;;;26.99;100.00
9077;BME280;4574;51.072;17.174;2023-08-17T10:00:58;100530.44;;;27.13;100.00
9077;BME280;4574;51.072;17.174;2023-08-17T10:03:32;100525.00;;;27.29;100.00
9077;BME280;4574;51.072;17.174;2023-08-17T10:06:04;100526.47;;;27.37;100.00
9077;BME280;4574;51.072;17.174;2023-08-17T10:08:38;100523.75;;;27.53;100.00
9077;BME280;4574;51.072;17.174;2023-08-17T10:11:10;100520.03;;;27.59;100.00
9077;BME280;4574;51.072;17.174;2023-08-17T10:13:42;100523.00;;;27.57;100.00
9077;BME280;4574;51.072;17.174;2023-08-17T10:16:22;100524.09;;;27.73;100.00
9077;BME280;4574;51.072;17.174;2023-08-17T10:19:05;100514.88;;;27.95;100.00
9077;BME280;4574;51.072;17.174;2023-08-17T10:21:39;100524.06;;;28.11;100.00
9077;BME280;4574;51.072;17.174;2023-08-17T10:24:12;100513.44;;;28.31;100.00
9077;BME280;4574;51.072;17.174;2023-08-17T10:26:43;100514.00;;;28.54;100.00
9077;BME280;4574;51.072;17.174;2023-08-17T10:29:13;100512.25;;;28.70;99.84
9077;BME280;4574;51.072;17.174;2023-08-17T10:31:44;100508.31;;;28.82;99.98
9077;BME280;4574;51.072;17.174;2023-08-17T10:34:14;100509.38;;;29.02;99.28
9077;BME280;4574;51.072;17.174;2023-08-17T10:36:43;100506.19;;;29.15;98.60
9077;BME280;4574;51.072;17.174;2023-08-17T10:39:20;100503.56;;;29.25;97.32
9077;BME280;4574;51.072;17.174;2023-08-17T10:41:56;100509.25;;;29.24;96.50
9077;BME280;4574;51.072;17.174;2023-08-17T10:44:43;100499.84;;;29.41;96.88
9077;BME280;4574;51.072;17.174;2023-08-17T10:47:23;100504.59;;;29.56;96.74
9077;BME280;4574;51.072;17.174;2023-08-17T10:49:55;100498.94;;;29.62;96.40
9077;BME280;4574;51.072;17.174;2023-08-17T10:52:28;100500.84;;;29.67;93.88
9077;BME280;4574;51.072;17.174;2023-08-17T10:54:59;100497.19;;;29.88;94.14
9077;BME280;4574;51.072;17.174;2023-08-17T10:57:31;100498.63;;;30.00;92.88
9077;BME280;4574;51.072;17.174;2023-08-17T11:00:16;100497.03;;;30.09;92.76
9077;BME280;4574;51.072;17.174;2023-08-17T11:02:54;100492.19;;;30.31;92.69
9077;BME280;4574;51.072;17.174;2023-08-17T11:05:37;100487.53;;;30.27;87.81
9077;BME280;4574;51.072;17.174;2023-08-17T11:08:07;100496.00;;;30.25;81.00
9077;BME280;4574;51.072;17.174;2023-08-17T11:10:37;100494.94;;;30.41;81.29
9077;BME280;4574;51.072;17.174;2023-08-17T11:13:08;100491.25;;;30.62;79.33
9077;BME280;4574;51.072;17.174;2023-08-17T11:15:38;100488.22;;;30.73;77.86
9077;BME280;4574;51.072;17.174;2023-08-17T11:18:10;100494.00;;;30.77;78.58
9077;BME280;4574;51.072;17.174;2023-08-17T11:20:40;100492.91;;;31.03;79.27
9077;BME280;4574;51.072;17.174;2023-08-17T11:23:09;100487.72;;;31.31;78.20
9077;BME280;4574;51.072;17.174;2023-08-17T11:25:38;100483.06;;;31.52;78.47
9077;BME280;4574;51.072;17.174;2023-08-17T11:28:09;100489.06;;;31.69;74.75
9077;BME280;4574;51.072;17.174;2023-08-17T11:30:37;100485.47;;;31.88;76.30
9077;BME280;4574;51.072;17.174;2023-08-17T11:33:07;100485.38;;;32.08;76.87
9077;BME280;4574;51.072;17.174;2023-08-17T11:35:36;100486.69;;;32.25;75.92
9077;BME280;4574;51.072;17.174;2023-08-17T11:38:07;100487.78;;;32.34;73.68
9077;BME280;4574;51.072;17.174;2023-08-17T11:40:36;100491.09;;;32.31;72.94
9077;BME280;4574;51.072;17.174;2023-08-17T11:43:04;100489.38;;;32.40;69.45
9077;BME280;4574;51.072;17.174;2023-08-17T11:45:36;100480.50;;;32.58;70.86
9077;BME280;4574;51.072;17.174;2023-08-17T11:48:05;100486.25;;;32.57;70.48
9077;BME280;4574;51.072;17.174;2023-08-17T11:50:34;100488.81;;;32.43;70.56
9077;BME280;4574;51.072;17.174;2023-08-17T11:53:05;100489.81;;;32.67;70.24
9077;BME280;4574;51.072;17.174;2023-08-17T11:55:34;100496.28;;;32.81;70.55
9077;BME280;4574;51.072;17.174;2023-08-17T11:58:03;100497.16;;;33.10;69.88
9077;BME280;4574;51.072;17.174;2023-08-17T12:00:40;100486.09;;;33.25;67.74
9077;BME280;4574;51.072;17.174;2023-08-17T12:03:14;100487.53;;;33.46;69.65
9077;BME280;4574;51.072;17.174;2023-08-17T12:05:44;100494.03;;;33.55;68.61
9077;BME280;4574;51.072;17.174;2023-08-17T12:08:13;100495.19;;;33.49;64.19
9077;BME280;4574;51.072;17.174;2023-08-17T12:10:44;100486.19;;;33.72;67.99
9077;BME280;4574;51.072;17.174;2023-08-17T12:13:13;100489.81;;;33.91;66.61
9077;BME280;4574;51.072;17.174;2023-08-17T12:15:43;100481.09;;;33.84;65.11
9077;BME280;4574;51.072;17.174;2023-08-17T12:18:11;100481.53;;;33.72;62.71
9077;BME280;4574;51.072;17.174;2023-08-17T12:20:40;100476.03;;;33.72;64.09
9077;BME280;4574;51.072;17.174;2023-08-17T12:23:12;100481.34;;;33.59;63.75
9077;BME280;4574;51.072;17.174;2023-08-17T12:25:40;100468.84;;;33.76;64.62
9077;BME280;4574;51.072;17.174;2023-08-17T12:28:12;100467.28;;;33.89;64.69
9077;BME280;4574;51.072;17.174;2023-08-17T12:30:40;100470.88;;;34.13;64.94
9077;BME280;4574;51.072;17.174;2023-08-17T12:33:10;100465.72;;;34.06;62.74
9077;BME280;4574;51.072;17.174;2023-08-17T12:35:39;100463.63;;;34.22;62.76
9077;BME280;4574;51.072;17.174;2023-08-17T12:38:08;100460.44;;;34.33;62.62
9077;BME280;4574;51.072;17.174;2023-08-17T12:40:36;100446.09;;;34.36;61.71
9077;BME280;4574;51.072;17.174;2023-08-17T12:43:05;100442.41;;;34.46;63.02
9077;BME280;4574;51.072;17.174;2023-08-17T12:45:33;100440.16;;;34.48;61.76
9077;BME280;4574;51.072;17.174;2023-08-17T12:48:02;100444.34;;;34.64;62.77
9077;BME280;4574;51.072;17.174;2023-08-17T12:50:32;100429.38;;;34.88;63.03
9077;BME280;4574;51.072;17.174;2023-08-17T12:53:00;100420.53;;;35.04;62.95
9077;BME280;4574;51.072;17.174;2023-08-17T12:55:29;100408.41;;;35.05;61.97
9077;BME280;4574;51.072;17.174;2023-08-17T12:57:57;100406.84;;;35.18;60.31
9077;BME280;4574;51.072;17.174;2023-08-17T13:00:27;100401.06;;;35.33;60.49
9077;BME280;4574;51.072;17.174;2023-08-17T13:02:56;100393.09;;;35.31;61.54
9077;BME280;4574;51.072;17.174;2023-08-17T13:05:25;100388.13;;;35.47;62.18